aviador You're here:

YBWX Decoded Metar

in
Report Time2018-02-17 23:00:00
UTC Time2018-02-17 23:34:14
Flight Rules unknown UNKNOWN
Wind210° at 22 kt
W.Decomp.*RWY 21: 22.0 kt HW 0 kt LCW
W.Rank210° ranks 2
Current wind is above 210° avg. (13.2)
VisibilityN/A
Phenomena:N/A
Clouds:N/A
Expected CloudBase > 2,400 ft AGL from Temp-Dew spread
CeilingNone
Temp27°C
Dew Point21°C (70% RH)
Heat Index28.9°C
AAT23.3°C
QNH1003 hPa
Raw Report
METAR YBWX 172300Z AUTO 21022KT //// // ////// 27/21 Q1003=

Extra information for YBWX:More info

Social comments